Wetterstation Vordersexau
Wetterdaten: Woche 03.09.18 - 09.09.18 (KW36)
Datum Zeit Temp. A. Feuchte A. Luftdruck Regen Wind Richtung Taupunkt Windchill Windben
03.09.2018 00:00 14,8 C 83 % 1015,6 hPa 0,0 l/m 0,0 km/h N 11,9 C 14,8 C 0,0 km/h
03.09.2018 01:00 14,7 C 83 % 1015,0 hPa 0,0 l/m 0,0 km/h N 11,8 C 14,7 C 0,0 km/h
03.09.2018 02:00 13,9 C 83 % 1014,5 hPa 0,0 l/m 0,0 km/h N 11,1 C 13,9 C 0,0 km/h
03.09.2018 03:00 13,6 C 81 % 1015,0 hPa 0,0 l/m 0,0 km/h N 10,4 C 13,6 C 0,0 km/h
03.09.2018 04:00 13,9 C 80 % 1014,4 hPa 0,0 l/m 0,0 km/h N 10,5 C 13,9 C 0,0 km/h
03.09.2018 05:00 13,9 C 80 % 1014,0 hPa 0,0 l/m 0,0 km/h N 10,5 C 13,9 C 0,0 km/h
03.09.2018 06:00 13,9 C 80 % 1013,8 hPa 0,0 l/m 0,0 km/h N 10,5 C 13,9 C 0,0 km/h
03.09.2018 07:00 14,1 C 79 % 1014,2 hPa 0,0 l/m 0,0 km/h N-NW 10,5 C 14,1 C 0,0 km/h
03.09.2018 08:00 14,4 C 76 % 1014,3 hPa 0,0 l/m 0,0 km/h N-NW 10,2 C 14,4 C 0,0 km/h
03.09.2018 09:00 15,4 C 77 % 1014,3 hPa 0,0 l/m 0,0 km/h W-NW 11,4 C 15,4 C 0,0 km/h
03.09.2018 10:00 15,9 C 82 % 1014,4 hPa 0,0 l/m 0,0 km/h W-NW 12,8 C 15,9 C 0,0 km/h
03.09.2018 11:00 17,1 C 83 % 1014,2 hPa 0,0 l/m 0,0 km/h W 14,2 C 17,1 C 0,0 km/h
03.09.2018 12:00 18,2 C 80 % 1014,0 hPa 0,0 l/m 0,0 km/h S 14,7 C 18,2 C 0,0 km/h
03.09.2018 13:00 19,0 C 78 % 1013,6 hPa 0,0 l/m 0,0 km/h S-SO 15,1 C 19,0 C 0,0 km/h
03.09.2018 14:00 18,9 C 77 % 1013,7 hPa 0,0 l/m 0,0 km/h W 14,8 C 18,9 C 0,0 km/h
03.09.2018 15:00 19,3 C 75 % 1013,2 hPa 0,0 l/m 0,0 km/h N-NW 14,8 C 19,3 C 0,0 km/h
03.09.2018 16:00 19,4 C 73 % 1013,5 hPa 0,0 l/m 0,0 km/h N-NW 14,4 C 19,4 C 0,0 km/h
03.09.2018 17:00 19,8 C 71 % 1013,0 hPa 0,0 l/m 0,0 km/h N-NW 14,4 C 19,8 C 0,0 km/h
03.09.2018 18:00 19,9 C 69 % 1013,0 hPa 0,0 l/m 0,0 km/h N-NW 14,0 C 19,9 C 0,0 km/h
03.09.2018 19:00 18,6 C 76 % 1013,1 hPa 0,0 l/m 0,0 km/h N 14,3 C 18,6 C 0,0 km/h
03.09.2018 20:00 17,0 C 80 % 1013,5 hPa 0,0 l/m 0,0 km/h N 13,5 C 17,0 C 0,0 km/h
03.09.2018 21:00 16,2 C 82 % 1013,6 hPa 0,0 l/m 0,0 km/h N 13,1 C 16,2 C 0,0 km/h
03.09.2018 22:00 15,5 C 83 % 1013,5 hPa 0,0 l/m 0,0 km/h O-SO 12,6 C 15,5 C 0,0 km/h
03.09.2018 23:00 14,6 C 83 % 1013,5 hPa 0,0 l/m 0,0 km/h SO 11,7 C 14,6 C 0,0 km/h
04.09.2018 00:00 13,9 C 83 % 1013,4 hPa 0,0 l/m 0,0 km/h SO 11,1 C 13,9 C 0,0 km/h
04.09.2018 01:00 13,3 C 83 % 1013,5 hPa 0,0 l/m 0,0 km/h O-NO 10,5 C 13,3 C 0,0 km/h
04.09.2018 02:00 12,9 C 83 % 1013,2 hPa 0,0 l/m 0,0 km/h SO 10,1 C 12,9 C 0,0 km/h
04.09.2018 03:00 12,5 C 83 % 1013,3 hPa 0,0 l/m 0,0 km/h O 9,7 C 12,5 C 0,0 km/h
04.09.2018 04:00 12,1 C 82 % 1013,6 hPa 0,0 l/m 0,0 km/h O 9,1 C 12,1 C 0,0 km/h
04.09.2018 05:00 11,3 C 83 % 1013,8 hPa 0,0 l/m 0,0 km/h O 8,5 C 11,3 C 0,0 km/h
04.09.2018 06:00 11,3 C 81 % 1013,9 hPa 0,0 l/m 0,0 km/h SO 8,2 C 11,3 C 0,0 km/h
04.09.2018 07:00 11,8 C 79 % 1014,2 hPa 0,0 l/m 0,0 km/h SO 8,3 C 11,8 C 0,0 km/h
04.09.2018 08:00 15,8 C 80 % 1013,9 hPa 0,0 l/m 0,0 km/h O-NO 12,4 C 15,8 C 0,0 km/h
04.09.2018 09:00 18,9 C 78 % 1014,1 hPa 0,0 l/m 0,0 km/h SW 15,0 C 18,9 C 0,0 km/h
04.09.2018 10:00 19,8 C 74 % 1013,9 hPa 0,0 l/m 0,0 km/h S 15,0 C 19,8 C 0,0 km/h
04.09.2018 11:00 21,1 C 71 % 1013,2 hPa 0,0 l/m 0,0 km/h N-NW 15,6 C 21,1 C 0,0 km/h
04.09.2018 12:00 22,8 C 64 % 1012,7 hPa 0,0 l/m 0,0 km/h W 15,6 C 22,8 C 0,0 km/h
04.09.2018 13:00 23,8 C 59 % 1012,4 hPa 0,0 l/m 0,0 km/h NW 15,3 C 23,8 C 0,0 km/h
04.09.2018 14:00 23,1 C 61 % 1012,5 hPa 0,0 l/m 0,0 km/h NW 15,2 C 23,1 C 0,0 km/h
04.09.2018 15:00 23,4 C 59 % 1012,4 hPa 0,0 l/m 0,0 km/h N 14,9 C 23,4 C 0,0 km/h
04.09.2018 16:00 23,6 C 58 % 1012,6 hPa 0,0 l/m 0,0 km/h N-NO 14,8 C 23,6 C 0,0 km/h
04.09.2018 17:00 24,0 C 55 % 1012,4 hPa 0,0 l/m 0,0 km/h N-NO 14,4 C 24,0 C 0,0 km/h
04.09.2018 18:00 22,9 C 65 % 1012,5 hPa 0,0 l/m 0,0 km/h N-NO 16,0 C 22,9 C 0,0 km/h
04.09.2018 19:00 21,3 C 72 % 1012,8 hPa 0,0 l/m 0,0 km/h N-NO 16,0 C 21,3 C 0,0 km/h
04.09.2018 20:00 19,7 C 76 % 1013,4 hPa 0,0 l/m 0,0 km/h O-SO 15,3 C 19,7 C 0,0 km/h
04.09.2018 21:00 18,3 C 79 % 1013,7 hPa 0,0 l/m 0,0 km/h O-SO 14,6 C 18,3 C 0,0 km/h
04.09.2018 22:00 17,4 C 80 % 1014,0 hPa 0,0 l/m 0,0 km/h O 13,9 C 17,4 C 0,0 km/h
04.09.2018 23:00 16,6 C 81 % 1013,7 hPa 0,0 l/m 0,0 km/h O-NO 13,3 C 16,6 C 0,0 km/h
05.09.2018 00:00 16,2 C 82 % 1013,6 hPa 0,0 l/m 0,0 km/h O-NO 13,1 C 16,2 C 0,0 km/h
05.09.2018 01:00 15,9 C 82 % 1013,6 hPa 0,0 l/m 0,0 km/h O-SO 12,8 C 15,9 C 0,0 km/h
05.09.2018 02:00 15,3 C 83 % 1014,0 hPa 0,0 l/m 0,0 km/h SO 12,4 C 15,3 C 0,0 km/h
05.09.2018 03:00 14,6 C 83 % 1013,8 hPa 0,0 l/m 0,0 km/h O-SO 11,7 C 14,6 C 0,0 km/h
05.09.2018 04:00 13,9 C 82 % 1013,7 hPa 0,0 l/m 0,0 km/h O-NO 10,9 C 13,9 C 0,0 km/h
05.09.2018 05:00 14,1 C 82 % 1013,7 hPa 0,0 l/m 0,0 km/h SO 11,1 C 14,1 C 0,0 km/h
05.09.2018 06:00 14,1 C 82 % 1013,9 hPa 0,0 l/m 0,0 km/h O-SO 11,1 C 14,1 C 0,0 km/h
05.09.2018 07:00 13,9 C 82 % 1014,3 hPa 0,0 l/m 0,0 km/h SO 10,9 C 13,9 C 0,0 km/h
05.09.2018 08:00 17,7 C 83 % 1014,7 hPa 0,0 l/m 0,0 km/h W-SW 14,8 C 17,7 C 0,0 km/h
05.09.2018 09:00 20,5 C 75 % 1014,6 hPa 0,0 l/m 0,0 km/h NW 15,9 C 20,5 C 0,0 km/h
05.09.2018 10:00 20,6 C 73 % 1014,4 hPa 0,0 l/m 0,0 km/h W 15,6 C 20,6 C 0,0 km/h
05.09.2018 11:00 21,9 C 69 % 1013,9 hPa 0,0 l/m 0,0 km/h W-SW 15,9 C 21,9 C 0,0 km/h
05.09.2018 12:00 23,8 C 65 % 1013,5 hPa 0,0 l/m 0,0 km/h SO 16,8 C 23,8 C 0,0 km/h
05.09.2018 13:00 24,8 C 62 % 1013,0 hPa 0,0 l/m 0,0 km/h SW 17,0 C 24,8 C 0,0 km/h
05.09.2018 14:00 25,6 C 59 % 1012,7 hPa 0,0 l/m 13,0 km/h W-SW 17,0 C 24,3 C 7,2 km/h
05.09.2018 15:00 26,3 C 56 % 1012,2 hPa 0,0 l/m 0,0 km/h S-SO 16,8 C 26,3 C 0,0 km/h
05.09.2018 16:00 26,9 C 54 % 1011,8 hPa 0,0 l/m 0,0 km/h W-SW 16,8 C 26,9 C 0,0 km/h
05.09.2018 17:00 28,5 C 49 % 1011,5 hPa 0,0 l/m 0,0 km/h W-NW 16,7 C 28,5 C 0,0 km/h
05.09.2018 18:00 27,8 C 51 % 1011,1 hPa 0,0 l/m 0,0 km/h W-NW 16,7 C 27,8 C 0,0 km/h
05.09.2018 19:00 25,2 C 55 % 1010,9 hPa 0,0 l/m 0,0 km/h W 15,5 C 25,2 C 0,0 km/h
05.09.2018 20:00 21,9 C 70 % 1011,4 hPa 0,0 l/m 0,0 km/h S 16,2 C 21,9 C 0,0 km/h
05.09.2018 21:00 20,3 C 74 % 1011,5 hPa 0,0 l/m 0,0 km/h O-NO 15,5 C 20,3 C 0,0 km/h
05.09.2018 22:00 19,1 C 77 % 1011,3 hPa 0,0 l/m 0,0 km/h SO 15,0 C 19,1 C 0,0 km/h
05.09.2018 23:00 18,3 C 79 % 1011,3 hPa 0,0 l/m 0,0 km/h O 14,6 C 18,3 C 0,0 km/h
06.09.2018 00:00 17,5 C 80 % 1011,1 hPa 0,0 l/m 0,0 km/h O 14,0 C 17,5 C 0,0 km/h
06.09.2018 01:00 16,9 C 81 % 1010,9 hPa 0,0 l/m 0,0 km/h SO 13,6 C 16,9 C 0,0 km/h
06.09.2018 02:00 16,4 C 81 % 1010,9 hPa 0,0 l/m 0,0 km/h SO 13,1 C 16,4 C 0,0 km/h
06.09.2018 03:00 16,0 C 82 % 1010,6 hPa 0,0 l/m 0,0 km/h O-SO 12,9 C 16,0 C 0,0 km/h
06.09.2018 04:00 15,8 C 82 % 1010,4 hPa 0,0 l/m 0,0 km/h SO 12,7 C 15,8 C 0,0 km/h
06.09.2018 05:00 15,4 C 82 % 1010,1 hPa 0,0 l/m 0,0 km/h O-SO 12,3 C 15,4 C 0,0 km/h
06.09.2018 06:00 14,4 C 83 % 1009,9 hPa 0,0 l/m 0,0 km/h O-SO 11,5 C 14,4 C 0,0 km/h
06.09.2018 07:00 14,9 C 83 % 1010,0 hPa 0,0 l/m 0,0 km/h SO 12,0 C 14,9 C 0,0 km/h
06.09.2018 08:00 16,9 C 82 % 1009,9 hPa 0,0 l/m 0,0 km/h SO 13,8 C 16,9 C 0,0 km/h
06.09.2018 09:00 21,6 C 75 % 1010,1 hPa 0,0 l/m 0,0 km/h SW 17,0 C 21,6 C 0,0 km/h
06.09.2018 10:00 21,8 C 67 % 1010,3 hPa 0,0 l/m 0,0 km/h W-SW 15,4 C 21,8 C 0,0 km/h
06.09.2018 11:00 23,1 C 63 % 1010,0 hPa 0,0 l/m 0,0 km/h W 15,7 C 23,1 C 0,0 km/h
06.09.2018 12:00 23,8 C 57 % 1009,6 hPa 0,0 l/m 14,9 km/h W 14,8 C 21,9 C 8,3 km/h
06.09.2018 13:00 23,0 C 60 % 1009,3 hPa 0,0 l/m 2,6 km/h S-SW 14,8 C 23,0 C 1,4 km/h
06.09.2018 14:00 23,3 C 60 % 1008,9 hPa 0,0 l/m 11,7 km/h W-SW 15,1 C 21,9 C 6,5 km/h
06.09.2018 15:00 23,8 C 60 % 1008,5 hPa 0,0 l/m 26,6 km/h W 15,6 C 20,4 C 14,8 km/h
06.09.2018 16:00 23,2 C 63 % 1008,5 hPa 0,0 l/m 0,0 km/h W-SW 15,8 C 23,2 C 0,0 km/h
06.09.2018 17:00 22,2 C 64 % 1008,4 hPa 0,0 l/m 3,9 km/h NW 15,1 C 22,2 C 2,2 km/h
06.09.2018 18:00 19,8 C 73 % 1009,2 hPa 0,5 l/m 0,0 km/h SO 14,8 C 19,8 C 0,0 km/h
06.09.2018 19:00 17,4 C 81 % 1010,0 hPa 3,6 l/m 0,0 km/h O 14,1 C 17,4 C 0,0 km/h
06.09.2018 20:00 16,9 C 82 % 1010,0 hPa 0,0 l/m 0,0 km/h O 13,8 C 16,9 C 0,0 km/h
06.09.2018 21:00 17,3 C 82 % 1010,5 hPa 0,0 l/m 0,0 km/h O-SO 14,2 C 17,3 C 0,0 km/h
06.09.2018 22:00 17,1 C 82 % 1010,1 hPa 0,0 l/m 0,0 km/h O-SO 14,0 C 17,1 C 0,0 km/h
06.09.2018 23:00 17,1 C 82 % 1010,3 hPa 0,0 l/m 0,0 km/h O-SO 14,0 C 17,1 C 0,0 km/h
07.09.2018 00:00 17,0 C 81 % 1010,5 hPa 0,0 l/m 0,0 km/h O-SO 13,7 C 17,0 C 0,0 km/h
07.09.2018 01:00 17,0 C 80 % 1010,4 hPa 0,0 l/m 0,0 km/h O-SO 13,5 C 17,0 C 0,0 km/h
07.09.2018 02:00 17,0 C 80 % 1010,7 hPa 0,0 l/m 0,0 km/h O-SO 13,5 C 17,0 C 0,0 km/h
07.09.2018 03:00 16,9 C 80 % 1010,8 hPa 0,0 l/m 0,0 km/h O-SO 13,4 C 16,9 C 0,0 km/h
07.09.2018 04:00 16,1 C 81 % 1010,8 hPa 0,0 l/m 0,0 km/h O-SO 12,8 C 16,1 C 0,0 km/h
07.09.2018 05:00 15,5 C 80 % 1011,2 hPa 0,0 l/m 0,0 km/h O-SO 12,1 C 15,5 C 0,0 km/h
07.09.2018 06:00 14,9 C 80 % 1011,5 hPa 0,0 l/m 0,0 km/h SO 11,5 C 14,9 C 0,0 km/h
07.09.2018 07:00 15,5 C 78 % 1011,9 hPa 0,0 l/m 0,0 km/h N 11,7 C 15,5 C 0,0 km/h
07.09.2018 08:00 16,1 C 77 % 1012,6 hPa 0,0 l/m 0,0 km/h W-SW 12,1 C 16,1 C 0,0 km/h
07.09.2018 09:00 16,5 C 79 % 1012,8 hPa 0,0 l/m 0,0 km/h W 12,8 C 16,5 C 0,0 km/h
07.09.2018 10:00 17,8 C 81 % 1013,2 hPa 0,0 l/m 0,0 km/h W-SW 14,5 C 17,8 C 0,0 km/h
07.09.2018 11:00 19,6 C 81 % 1013,5 hPa 0,0 l/m 13,0 km/h N-NW 16,2 C 17,3 C 7,2 km/h
07.09.2018 12:00 21,1 C 72 % 1013,0 hPa 0,0 l/m 0,0 km/h SW 15,8 C 21,1 C 0,0 km/h
07.09.2018 13:00 20,9 C 66 % 1013,2 hPa 0,0 l/m 9,1 km/h N 14,3 C 19,9 C 5,0 km/h
07.09.2018 14:00 21,5 C 65 % 1013,3 hPa 0,0 l/m 0,0 km/h N-NO 14,6 C 21,5 C 0,0 km/h
07.09.2018 15:00 21,1 C 60 % 1013,5 hPa 0,0 l/m 1,9 km/h N-NW 13,0 C 21,1 C 1,1 km/h
07.09.2018 16:00 21,3 C 57 % 1013,5 hPa 0,0 l/m 0,0 km/h N 12,4 C 21,3 C 0,0 km/h
07.09.2018 17:00 21,0 C 57 % 1013,6 hPa 0,0 l/m 0,0 km/h N 12,1 C 21,0 C 0,0 km/h
07.09.2018 18:00 20,3 C 60 % 1014,3 hPa 0,0 l/m 0,0 km/h N 12,3 C 20,3 C 0,0 km/h
07.09.2018 19:00 19,3 C 66 % 1014,6 hPa 0,0 l/m 0,0 km/h N-NO 12,8 C 19,3 C 0,0 km/h
07.09.2018 20:00 17,3 C 72 % 1015,4 hPa 0,0 l/m 0,0 km/h N-NO 12,2 C 17,3 C 0,0 km/h
07.09.2018 21:00 16,1 C 76 % 1015,9 hPa 0,0 l/m 0,0 km/h N-NO 11,9 C 16,1 C 0,0 km/h
07.09.2018 22:00 14,9 C 79 % 1016,3 hPa 0,0 l/m 0,0 km/h N-NO 11,3 C 14,9 C 0,0 km/h
07.09.2018 23:00 13,8 C 82 % 1016,8 hPa 0,0 l/m 0,0 km/h N-NO 10,8 C 13,8 C 0,0 km/h
08.09.2018 00:00 13,3 C 83 % 1017,4 hPa 0,0 l/m 0,0 km/h N-NO 10,5 C 13,3 C 0,0 km/h
08.09.2018 01:00 12,9 C 83 % 1017,7 hPa 0,0 l/m 0,0 km/h NO 10,1 C 12,9 C 0,0 km/h
08.09.2018 02:00 13,1 C 83 % 1017,9 hPa 0,0 l/m 0,0 km/h O 10,3 C 13,1 C 0,0 km/h
08.09.2018 03:00 12,9 C 83 % 1018,0 hPa 0,0 l/m 0,0 km/h O 10,1 C 12,9 C 0,0 km/h
08.09.2018 04:00 13,1 C 83 % 1018,0 hPa 0,0 l/m 0,0 km/h O 10,3 C 13,1 C 0,0 km/h
08.09.2018 05:00 12,9 C 83 % 1018,0 hPa 0,0 l/m 0,0 km/h O 10,1 C 12,9 C 0,0 km/h
08.09.2018 06:00 11,9 C 84 % 1018,2 hPa 0,0 l/m 0,0 km/h O 9,3 C 11,9 C 0,0 km/h
08.09.2018 07:00 12,1 C 83 % 1018,6 hPa 0,0 l/m 0,0 km/h O 9,3 C 12,1 C 0,0 km/h
08.09.2018 08:00 13,4 C 83 % 1018,9 hPa 0,0 l/m 0,0 km/h O 10,6 C 13,4 C 0,0 km/h
08.09.2018 09:00 19,6 C 73 % 1019,0 hPa 0,0 l/m 0,0 km/h N-NO 14,6 C 19,6 C 0,0 km/h
08.09.2018 10:00 18,5 C 72 % 1019,0 hPa 0,0 l/m 0,0 km/h SW 13,4 C 18,5 C 0,0 km/h
08.09.2018 11:00 19,5 C 66 % 1018,5 hPa 0,0 l/m 0,0 km/h O 13,0 C 19,5 C 0,0 km/h
08.09.2018 12:00 20,4 C 60 % 1018,3 hPa 0,0 l/m 0,0 km/h N-NW 12,4 C 20,4 C 0,0 km/h
08.09.2018 13:00 21,6 C 57 % 1017,7 hPa 0,0 l/m 0,0 km/h O-NO 12,7 C 21,6 C 0,0 km/h
08.09.2018 14:00 22,3 C 54 % 1017,4 hPa 0,0 l/m 0,0 km/h N-NW 12,5 C 22,3 C 0,0 km/h
08.09.2018 15:00 22,8 C 51 % 1017,0 hPa 0,0 l/m 5,8 km/h N 12,1 C 22,8 C 3,2 km/h
08.09.2018 16:00 23,5 C 49 % 1016,9 hPa 0,0 l/m 0,0 km/h W-NW 12,2 C 23,5 C 0,0 km/h
08.09.2018 17:00 26,6 C 43 % 1016,9 hPa 0,0 l/m 0,0 km/h N 13,0 C 26,6 C 0,0 km/h
08.09.2018 18:00 23,1 C 49 % 1016,9 hPa 0,0 l/m 0,0 km/h O 11,8 C 23,1 C 0,0 km/h
08.09.2018 19:00 20,1 C 61 % 1016,8 hPa 0,0 l/m 0,0 km/h O-NO 12,3 C 20,1 C 0,0 km/h
08.09.2018 20:00 17,5 C 69 % 1017,4 hPa 0,0 l/m 0,0 km/h O 11,7 C 17,5 C 0,0 km/h
08.09.2018 21:00 16,3 C 74 % 1017,4 hPa 0,0 l/m 0,0 km/h O 11,7 C 16,3 C 0,0 km/h
08.09.2018 22:00 15,2 C 76 % 1017,6 hPa 0,0 l/m 0,0 km/h O-NO 11,0 C 15,2 C 0,0 km/h
08.09.2018 23:00 14,3 C 79 % 1017,5 hPa 0,0 l/m 0,0 km/h O-NO 10,7 C 14,3 C 0,0 km/h
09.09.2018 00:00 13,4 C 80 % 1017,9 hPa 0,0 l/m 0,0 km/h O-NO 10,0 C 13,4 C 0,0 km/h
09.09.2018 01:00 12,5 C 82 % 1018,2 hPa 0,0 l/m 0,0 km/h O-NO 9,5 C 12,5 C 0,0 km/h
09.09.2018 02:00 12,4 C 82 % 1018,2 hPa 0,0 l/m 0,0 km/h O 9,4 C 12,4 C 0,0 km/h
09.09.2018 03:00 12,1 C 83 % 1018,3 hPa 0,0 l/m 0,0 km/h O-NO 9,3 C 12,1 C 0,0 km/h
09.09.2018 04:00 11,8 C 83 % 1018,6 hPa 0,0 l/m 0,0 km/h O-NO 9,0 C 11,8 C 0,0 km/h
09.09.2018 05:00 11,0 C 83 % 1018,6 hPa 0,0 l/m 0,0 km/h O-NO 8,2 C 11,0 C 0,0 km/h
09.09.2018 06:00 10,6 C 83 % 1019,0 hPa 0,0 l/m 0,0 km/h O-NO 7,8 C 10,6 C 0,0 km/h
09.09.2018 07:00 10,6 C 83 % 1019,2 hPa 0,0 l/m 0,0 km/h O 7,8 C 10,6 C 0,0 km/h
09.09.2018 08:00 15,8 C 82 % 1019,3 hPa 0,0 l/m 0,0 km/h W-NW 12,7 C 15,8 C 0,0 km/h
09.09.2018 09:00 19,8 C 69 % 1019,7 hPa 0,0 l/m 0,0 km/h NW 13,9 C 19,8 C 0,0 km/h
09.09.2018 10:00 19,3 C 68 % 1019,7 hPa 0,0 l/m 0,0 km/h NW 13,2 C 19,3 C 0,0 km/h
09.09.2018 11:00 21,1 C 63 % 1019,3 hPa 0,0 l/m 7,8 km/h NW 13,8 C 20,6 C 4,3 km/h
09.09.2018 12:00 23,0 C 57 % 1019,0 hPa 0,0 l/m 7,1 km/h W 14,0 C 22,8 C 4,0 km/h
09.09.2018 13:00 24,4 C 51 % 1018,7 hPa 0,0 l/m 1,3 km/h W-SW 13,6 C 24,4 C 0,7 km/h
09.09.2018 14:00 25,5 C 46 % 1018,5 hPa 0,0 l/m 0,0 km/h N-NO 13,0 C 25,5 C 0,0 km/h
09.09.2018 15:00 26,2 C 44 % 1018,0 hPa 0,0 l/m 3,9 km/h N-NO 13,0 C 26,2 C 2,2 km/h
09.09.2018 16:00 26,4 C 36 % 1017,8 hPa 0,0 l/m 0,0 km/h N-NO 10,1 C 26,4 C 0,0 km/h
09.09.2018 17:00 31,1 C 27 % 1017,8 hPa 0,0 l/m 0,0 km/h N-NO 9,9 C 31,1 C 0,0 km/h
09.09.2018 18:00 26,3 C 32 % 1017,6 hPa 0,0 l/m 0,0 km/h O-NO 8,3 C 26,3 C 0,0 km/h
09.09.2018 19:00 21,4 C 47 % 1017,9 hPa 0,0 l/m 0,0 km/h O 9,6 C 21,4 C 0,0 km/h
09.09.2018 20:00 18,8 C 55 % 1018,3 hPa 0,0 l/m 0,0 km/h O-SO 9,6 C 18,8 C 0,0 km/h
09.09.2018 21:00 17,1 C 61 % 1018,8 hPa 0,0 l/m 0,0 km/h O-SO 9,5 C 17,1 C 0,0 km/h
09.09.2018 22:00 16,3 C 64 % 1019,2 hPa 0,0 l/m 0,0 km/h O-SO 9,5 C 16,3 C 0,0 km/h
09.09.2018 23:00 15,4 C 67 % 1019,4 hPa 0,0 l/m 0,0 km/h O-NO 9,3 C 15,4 C 0,0 km/h
Min-Datum _ 09.09.18 09.09.18 06.09.18 - 03.09.18 - 09.09.18 09.09.18 03.09.18
_ Min-Zeit 06:53 17:53 17:53 - 00:53 - 06:53 06:53 00:53
Minimum _ 10,6 C 27 % 1008,4 hPa - 0,0 km/h - 7,8 C 10,6 C 0,0 km/h
Max-Datum _ 09.09.18 08.09.18 09.09.18 06.09.18 06.09.18 - 05.09.18 09.09.18 06.09.18
_ Max-Zeit 17:53 06:53 09:53 19:53 15:53 - 13:53 17:53 15:53
Maximum _ 31,1 C 84 % 1019,7 hPa 3,6 l/m 26,6 km/h
W
- 17,0 C 31,1 C 14,8 km/h
W
Durchschnitt _ 18,2 C 72 % 1014,2 hPa #4,1 l/m 0,7 km/h O 12,8 C 18,1 C 0,4 km/h
www.sexauwetter.de